Time;durP1;ratioP1;P1;durP2;ratioP2;P2;SDS_P1;SDS_P2;PMS_P1;PMS_P2;Temp;Humidity;BMP_temperature;BMP_pressure;BME280_temperature;BME280_humidity;BME280_pressure;Samples;Min_cycle;Max_cycle;Signal;HPM_P1;HPM_P2
2024/01/15 00:00:14;;;;;;;153.82;58.35;;;;;;;-142.91;100.00;56616.03;5044366;28;20231;-75
2024/01/15 00:02:40;;;;;;;151.18;59.92;;;;;;;-142.91;100.00;56616.03;5042063;28;20287;-76
2024/01/15 00:05:09;;;;;;;128.70;53.25;;;;;;;-142.91;100.00;56616.03;5041339;28;20297;-78
2024/01/15 00:07:36;;;;;;;127.93;53.20;;;;;;;-142.91;100.00;56616.03;5052098;28;20291;-79
2024/01/15 00:10:03;;;;;;;133.32;55.67;;;;;;;-142.91;100.00;56616.03;5051071;28;20306;-77
2024/01/15 00:12:29;;;;;;;144.50;56.90;;;;;;;-142.91;100.00;56616.03;5042494;28;20650;-81
2024/01/15 00:14:56;;;;;;;144.60;59.13;;;;;;;-142.91;100.00;56616.03;5046294;28;20314;-77
2024/01/15 00:17:22;;;;;;;143.52;60.20;;;;;;;-142.91;100.00;56616.03;5047870;28;20249;-77
2024/01/15 00:19:49;;;;;;;155.38;58.25;;;;;;;;;;5047660;28;20234;-77
2024/01/15 00:22:17;;;;;;;150.02;56.88;;;;;;;-142.91;100.00;56616.03;5054916;28;20762;-78
2024/01/15 00:24:43;;;;;;;157.00;61.75;;;;;;;-142.91;100.00;56616.03;5041025;28;20736;-76
2024/01/15 00:27:10;;;;;;;150.52;55.75;;;;;;;-142.91;100.00;56616.03;5047218;28;20226;-76
2024/01/15 00:29:37;;;;;;;145.55;61.03;;;;;;;-142.91;100.00;56616.03;5049849;28;20298;-77
2024/01/15 00:32:04;;;;;;;150.32;59.88;;;;;;;-142.91;100.00;56616.03;5049692;28;20290;-77
2024/01/15 00:34:30;;;;;;;150.70;59.28;;;;;;;-142.91;100.00;56616.03;5048831;28;20736;-74
2024/01/15 00:36:57;;;;;;;160.38;61.20;;;;;;;-142.91;100.00;56616.03;5046739;28;20285;-74
2024/01/15 00:39:25;;;;;;;156.68;61.47;;;;;;;-142.91;100.00;56616.03;5051287;28;20767;-79
2024/01/15 00:41:52;;;;;;;164.95;60.55;;;;;;;-142.91;100.00;56616.03;5048368;28;20587;-78
2024/01/15 00:44:19;;;;;;;142.88;57.38;;;;;;;-142.91;100.00;56616.03;5048405;28;20286;-78
2024/01/15 00:46:46;;;;;;;136.75;56.10;;;;;;;-142.91;100.00;56616.03;5051014;28;20293;-76
2024/01/15 00:49:13;;;;;;;143.35;54.22;;;;;;;-142.91;100.00;56616.03;5055722;28;20194;-73
2024/01/15 00:51:40;;;;;;;115.70;50.92;;;;;;;-142.91;100.00;56616.03;5051527;28;20286;-73
2024/01/15 00:54:07;;;;;;;129.75;51.58;;;;;;;-142.91;100.00;56616.03;5046261;28;20322;-76
2024/01/15 00:56:35;;;;;;;130.18;52.22;;;;;;;-142.91;100.00;56616.03;5052334;28;20336;-77
2024/01/15 00:59:01;;;;;;;127.88;50.60;;;;;;;-142.91;100.00;56616.03;5048880;28;20401;-77
2024/01/15 01:01:28;;;;;;;111.60;47.85;;;;;;;-142.91;100.00;56616.03;5046172;28;20222;-74
2024/01/15 01:03:55;;;;;;;124.43;51.60;;;;;;;-142.91;100.00;56616.03;5046605;28;20273;-68
2024/01/15 01:06:21;;;;;;;132.50;53.93;;;;;;;-142.91;100.00;56616.03;5048228;28;20289;-78
2024/01/15 01:08:48;;;;;;;138.32;53.38;;;;;;;-142.91;100.00;56616.03;5046967;28;20294;-76
2024/01/15 01:11:15;;;;;;;140.02;56.50;;;;;;;-142.91;100.00;56616.03;5044771;28;20667;-77
2024/01/15 01:13:43;;;;;;;129.38;54.65;;;;;;;-142.91;100.00;56616.03;5048540;28;20300;-74
2024/01/15 01:16:09;;;;;;;128.25;54.00;;;;;;;-142.91;100.00;56616.03;5049195;28;20285;-75
2024/01/15 01:18:36;;;;;;;145.18;58.08;;;;;;;-142.91;100.00;56616.03;5047521;28;20842;-80
2024/01/15 01:21:03;;;;;;;153.07;57.42;;;;;;;-142.91;100.00;56616.03;5041515;28;20314;-80
2024/01/15 01:23:29;;;;;;;122.18;52.60;;;;;;;-142.91;100.00;56616.03;5049367;28;21078;-80
2024/01/15 01:25:56;;;;;;;138.33;57.20;;;;;;;-142.91;100.00;56616.03;5050710;28;20771;-74
2024/01/15 01:28:23;;;;;;;137.65;58.78;;;;;;;-142.91;100.00;56616.03;5050864;28;20229;-79
2024/01/15 01:30:53;;;;;;;146.60;58.70;;;;;;;-142.91;100.00;56616.03;5047705;28;20646;-82
2024/01/15 01:33:19;;;;;;;136.45;54.00;;;;;;;-142.91;100.00;56616.03;5041651;28;20210;-77
2024/01/15 01:35:46;;;;;;;122.15;51.80;;;;;;;-142.91;100.00;56616.03;5045416;28;20683;-78
2024/01/15 01:38:13;;;;;;;131.70;55.55;;;;;;;-142.91;100.00;56616.03;5050664;28;20764;-79
2024/01/15 01:40:40;;;;;;;135.02;57.17;;;;;;;-142.91;100.00;56616.03;5050767;28;20707;-79
2024/01/15 01:43:06;;;;;;;146.82;55.47;;;;;;;-142.91;100.00;56616.03;5046443;28;20290;-77
2024/01/15 01:45:33;;;;;;;142.13;55.67;;;;;;;-142.91;100.00;56616.03;5054016;28;20306;-80
2024/01/15 01:48:02;;;;;;;126.05;53.15;;;;;;;-142.91;100.00;56616.03;5048993;28;20302;-74
2024/01/15 01:50:31;;;;;;;128.70;54.63;;;;;;;-142.91;100.00;56616.03;5047366;28;20201;-75
2024/01/15 01:52:58;;;;;;;151.18;53.95;;;;;;;-142.91;100.00;56616.03;5047925;28;20202;-80
2024/01/15 01:55:28;;;;;;;139.40;53.50;;;;;;;-142.91;100.00;56616.03;5052459;28;20773;-77
2024/01/15 01:57:56;;;;;;;139.18;56.58;;;;;;;-142.91;100.00;56616.03;5046284;28;20637;-71
2024/01/15 02:00:23;;;;;;;124.68;52.45;;;;;;;-142.91;100.00;56616.03;5045695;28;20298;-78
2024/01/15 02:02:50;;;;;;;122.32;51.80;;;;;;;-142.91;100.00;56616.03;5050881;28;20199;-80
2024/01/15 02:05:21;;;;;;;132.25;55.40;;;;;;;-142.91;100.00;56616.03;5050492;28;20294;-78
2024/01/15 02:07:48;;;;;;;142.50;56.03;;;;;;;-142.91;100.00;56616.03;5046393;28;20196;-71
2024/01/15 02:10:15;;;;;;;142.40;55.33;;;;;;;-142.91;100.00;56616.03;5056526;28;20218;-78
2024/01/15 02:12:43;;;;;;;141.55;52.58;;;;;;;-142.91;100.00;56616.03;5058329;28;20234;-69
2024/01/15 02:15:10;;;;;;;122.38;53.55;;;;;;;-142.91;100.00;56616.03;5047923;28;20255;-79
2024/01/15 02:17:56;;;;;;;132.80;52.72;;;;;;;;;;5052227;28;20310;-82
2024/01/15 02:20:25;;;;;;;140.23;52.42;;;;;;;-142.91;100.00;56616.03;5052006;28;20208;-81
2024/01/15 02:22:51;;;;;;;131.70;53.40;;;;;;;-142.91;100.00;56616.03;5050469;28;20226;-77
2024/01/15 02:25:20;;;;;;;126.10;55.67;;;;;;;-142.91;100.00;56616.03;5048085;28;20335;-76
2024/01/15 02:27:47;;;;;;;118.65;51.10;;;;;;;-142.91;100.00;56616.03;5050181;28;20873;-81
2024/01/15 02:30:14;;;;;;;135.70;54.25;;;;;;;-142.91;100.00;56616.03;5052502;28;20234;-71
2024/01/15 02:32:41;;;;;;;147.82;59.85;;;;;;;-142.91;100.00;56616.03;5060157;28;20661;-69
2024/01/15 02:35:08;;;;;;;142.35;58.03;;;;;;;-142.91;100.00;56616.03;5058903;28;20273;-72
2024/01/15 02:37:34;;;;;;;156.60;59.67;;;;;;;-142.91;100.00;56616.03;5056326;28;20206;-78
2024/01/15 02:40:01;;;;;;;157.70;59.22;;;;;;;-142.91;100.00;56616.03;5056217;28;20744;-75
2024/01/15 02:42:29;;;;;;;134.60;53.07;;;;;;;-142.91;100.00;56616.03;5046831;28;20219;-80
2024/01/15 02:44:55;;;;;;;124.10;53.85;;;;;;;-142.91;100.00;56616.03;5048643;28;20230;-75
2024/01/15 02:47:22;;;;;;;120.57;52.13;;;;;;;-142.91;100.00;56616.03;5047150;28;20314;-78
2024/01/15 02:49:49;;;;;;;133.43;54.08;;;;;;;-142.91;100.00;56616.03;5052099;28;20307;-71
2024/01/15 02:52:15;;;;;;;127.82;52.90;;;;;;;-142.91;100.00;56616.03;5063852;28;20226;-73
2024/01/15 02:54:42;;;;;;;128.52;52.45;;;;;;;-142.91;100.00;56616.03;5062584;28;20289;-76
2024/01/15 02:57:09;;;;;;;118.55;49.47;;;;;;;-142.91;100.00;56616.03;5060217;28;20289;-79
2024/01/15 02:59:37;;;;;;;129.63;52.28;;;;;;;-142.91;100.00;56616.03;5053442;28;20234;-77
2024/01/15 03:02:03;;;;;;;121.72;55.90;;;;;;;-142.91;100.00;56616.03;5062991;28;20250;-78
2024/01/15 03:04:30;;;;;;;126.18;53.28;;;;;;;-142.91;100.00;56616.03;5057825;28;20281;-77
2024/01/15 03:06:56;;;;;;;126.25;50.17;;;;;;;;;;5056598;28;20743;-76
2024/01/15 03:09:23;;;;;;;141.63;53.45;;;;;;;-142.91;100.00;56616.03;5063253;28;20241;-78
2024/01/15 03:11:49;;;;;;;127.63;54.30;;;;;;;;;;5051213;28;20226;-78
2024/01/15 03:14:16;;;;;;;135.13;53.78;;;;;;;-142.91;100.00;56616.03;5057007;28;20318;-75
2024/01/15 03:16:44;;;;;;;136.05;54.28;;;;;;;-142.91;100.00;56616.03;5051196;28;20234;-74
2024/01/15 03:19:10;;;;;;;123.38;53.10;;;;;;;;;;5049880;28;20313;-78
2024/01/15 03:21:37;;;;;;;139.05;58.42;;;;;;;-142.91;100.00;56616.03;5048859;28;20258;-76
2024/01/15 03:24:04;;;;;;;139.73;54.03;;;;;;;-142.91;100.00;56616.03;5049801;28;20299;-77
2024/01/15 03:26:31;;;;;;;129.73;54.17;;;;;;;-142.91;100.00;56616.03;5051547;28;20266;-79
2024/01/15 03:28:57;;;;;;;142.20;57.25;;;;;;;-142.91;100.00;56616.03;5057465;28;20250;-78
2024/01/15 03:31:24;;;;;;;141.35;55.58;;;;;;;-142.91;100.00;56616.03;5062433;28;20221;-76
2024/01/15 03:33:52;;;;;;;139.75;57.72;;;;;;;-142.91;100.00;56616.03;5052287;28;20282;-79
2024/01/15 03:36:19;;;;;;;152.70;59.10;;;;;;;-142.91;100.00;56616.03;5048406;28;20318;-78
2024/01/15 03:38:45;;;;;;;137.52;57.28;;;;;;;-142.91;100.00;56616.03;5051549;28;20226;-76
2024/01/15 03:41:12;;;;;;;146.68;60.97;;;;;;;-142.91;100.00;56616.03;5049693;28;20241;-76
2024/01/15 03:43:39;;;;;;;148.60;63.53;;;;;;;-142.91;100.00;56616.03;5048481;28;20199;-81
2024/01/15 03:46:05;;;;;;;174.65;67.35;;;;;;;-142.91;100.00;56616.03;5048496;28;20205;-79
2024/01/15 03:48:32;;;;;;;176.75;70.35;;;;;;;-142.91;100.00;56616.03;5048592;28;20402;-79
2024/01/15 03:51:01;;;;;;;168.27;69.30;;;;;;;-142.91;100.00;56616.03;5049903;28;20303;-76
2024/01/15 03:53:27;;;;;;;154.30;66.40;;;;;;;-142.91;100.00;56616.03;5050385;28;20314;-75
2024/01/15 03:55:54;;;;;;;146.50;64.90;;;;;;;-142.91;100.00;56616.03;5050004;28;20313;-78
2024/01/15 03:58:20;;;;;;;154.23;63.42;;;;;;;-142.91;100.00;56616.03;5050143;28;20759;-79
2024/01/15 04:00:47;;;;;;;150.73;59.83;;;;;;;-142.91;100.00;56616.03;5053762;28;20330;-79
2024/01/15 04:03:14;;;;;;;142.90;59.00;;;;;;;-142.91;100.00;56616.03;5049121;28;20238;-79
2024/01/15 04:05:40;;;;;;;134.48;54.55;;;;;;;-142.91;100.00;56616.03;5051715;28;20376;-80
2024/01/15 04:08:08;;;;;;;146.90;57.28;;;;;;;-142.91;100.00;56616.03;5051940;28;20202;-79
2024/01/15 04:10:35;;;;;;;133.80;57.92;;;;;;;-142.91;100.00;56616.03;5055191;28;20213;-79
2024/01/15 04:13:03;;;;;;;130.95;55.17;;;;;;;-142.91;100.00;56616.03;5049462;28;20218;-81
2024/01/15 04:15:30;;;;;;;132.82;53.97;;;;;;;-142.91;100.00;56616.03;5058819;28;20879;-76
2024/01/15 04:17:56;;;;;;;133.80;56.28;;;;;;;;;;5052171;28;20289;-80
2024/01/15 04:20:23;;;;;;;143.27;55.53;;;;;;;-142.91;100.00;56616.03;5054530;28;20293;-79
2024/01/15 04:22:49;;;;;;;132.75;54.72;;;;;;;;;;5051363;28;20924;-79
2024/01/15 04:25:17;;;;;;;121.97;52.15;;;;;;;;;;5049051;28;20315;-80
2024/01/15 04:27:43;;;;;;;139.15;54.65;;;;;;;-142.91;100.00;56616.03;5048633;28;20295;-79
2024/01/15 04:30:11;;;;;;;116.28;53.13;;;;;;;-142.91;100.00;56616.03;5046952;28;20199;-81
2024/01/15 04:32:38;;;;;;;119.68;50.33;;;;;;;-142.91;100.00;56616.03;5047593;28;20775;-80
2024/01/15 04:35:05;;;;;;;109.70;48.60;;;;;;;-142.91;100.00;56616.03;5047832;28;20547;-79
2024/01/15 04:37:31;;;;;;;115.32;49.22;;;;;;;-142.91;100.00;56616.03;5052715;28;20293;-80
2024/01/15 04:39:58;;;;;;;111.07;49.70;;;;;;;-142.91;100.00;56616.03;5053384;28;20285;-78
2024/01/15 04:42:26;;;;;;;138.68;50.35;;;;;;;-142.91;100.00;56616.03;5047520;28;20748;-79
2024/01/15 04:44:53;;;;;;;117.50;48.10;;;;;;;-142.91;100.00;56616.03;5046289;28;20286;-78
2024/01/15 04:47:19;;;;;;;105.05;47.70;;;;;;;;;;5047651;28;20330;-79
2024/01/15 04:49:45;;;;;;;111.10;51.75;;;;;;;;;;5048977;28;20229;-82
2024/01/15 04:52:12;;;;;;;101.45;44.15;;;;;;;-142.91;100.00;56616.03;5045181;28;20249;-78
2024/01/15 04:54:39;;;;;;;110.85;45.60;;;;;;;-142.91;100.00;56616.03;5052656;28;20624;-79
2024/01/15 04:57:05;;;;;;;122.85;47.50;;;;;;;-142.91;100.00;56616.03;5052365;28;20237;-79
2024/01/15 04:59:33;;;;;;;102.68;48.22;;;;;;;-142.91;100.00;56616.03;5051482;28;20210;-81
2024/01/15 05:02:00;;;;;;;114.80;47.45;;;;;;;-142.91;100.00;56616.03;5050727;28;20294;-75
2024/01/15 05:04:26;;;;;;;102.93;44.75;;;;;;;;;;5048594;28;20732;-79
2024/01/15 05:06:54;;;;;;;119.50;47.53;;;;;;;-142.91;100.00;56616.03;5055597;28;20282;-77
2024/01/15 05:09:21;;;;;;;109.53;45.20;;;;;;;-142.91;100.00;56616.03;5051623;28;20671;-76
2024/01/15 05:11:47;;;;;;;94.68;46.17;;;;;;;-142.91;100.00;56616.03;5049378;28;20294;-79
2024/01/15 05:14:14;;;;;;;113.65;48.60;;;;;;;-142.91;100.00;56616.03;5049057;28;20227;-77
2024/01/15 05:16:47;;;;;;;111.57;45.85;;;;;;;-142.91;100.00;56616.03;5052391;28;20795;-79
2024/01/15 05:19:14;;;;;;;107.68;45.10;;;;;;;-142.91;100.00;56616.03;5051482;28;20653;-78
2024/01/15 05:21:41;;;;;;;110.78;50.50;;;;;;;-142.91;100.00;56616.03;5056238;28;20314;-77
2024/01/15 05:24:09;;;;;;;193.52;70.38;;;;;;;-142.91;100.00;56616.03;5050714;28;20302;-78
2024/01/15 05:26:35;;;;;;;232.00;86.05;;;;;;;;;;5056548;28;20245;-81
2024/01/15 05:29:02;;;;;;;205.60;71.50;;;;;;;-142.91;100.00;56616.03;5046673;28;21589;-79
2024/01/15 05:31:28;;;;;;;219.18;76.70;;;;;;;-142.91;100.00;56616.03;5051394;28;20286;-79
2024/01/15 05:33:56;;;;;;;205.40;78.40;;;;;;;-142.91;100.00;56616.03;5053573;28;20241;-82
2024/01/15 05:36:23;;;;;;;169.38;65.63;;;;;;;-142.91;100.00;56616.03;5057889;28;20301;-78
2024/01/15 05:38:50;;;;;;;153.52;62.35;;;;;;;-142.91;100.00;56616.03;5049022;28;20301;-78
2024/01/15 05:41:16;;;;;;;158.20;61.67;;;;;;;-142.91;100.00;56616.03;5049752;28;20203;-81
2024/01/15 05:43:43;;;;;;;162.32;61.78;;;;;;;-142.91;100.00;56616.03;5048365;28;20306;-76
2024/01/15 05:46:09;;;;;;;156.13;58.70;;;;;;;-142.91;100.00;56616.03;5051058;28;20712;-81
2024/01/15 05:48:36;;;;;;;161.77;59.28;;;;;;;;;;5050772;28;20226;-79
2024/01/15 05:51:04;;;;;;;135.53;50.70;;;;;;;-142.91;100.00;56616.03;5046851;28;20321;-79
2024/01/15 05:53:30;;;;;;;177.43;66.82;;;;;;;-142.91;100.00;56616.03;5052507;28;20203;-76
2024/01/15 05:55:57;;;;;;;144.80;55.93;;;;;;;-142.91;100.00;56616.03;5050449;28;20306;-79
2024/01/15 05:58:24;;;;;;;161.38;56.55;;;;;;;-142.91;100.00;56616.03;5051892;28;20230;-79
2024/01/15 06:00:50;;;;;;;144.75;56.97;;;;;;;-142.91;100.00;56616.03;5059172;28;20270;-79
2024/01/15 06:03:17;;;;;;;133.13;54.15;;;;;;;-142.91;100.00;56616.03;5049473;28;20827;-76
2024/01/15 06:05:44;;;;;;;139.07;54.92;;;;;;;-142.91;100.00;56616.03;5049258;28;20286;-79
2024/01/15 06:08:12;;;;;;;142.68;52.95;;;;;;;-142.91;100.00;56616.03;5054422;28;20234;-78
2024/01/15 06:10:38;;;;;;;126.60;53.00;;;;;;;-142.91;100.00;56616.03;5045339;28;20728;-79
2024/01/15 06:13:05;;;;;;;129.73;55.83;;;;;;;-142.91;100.00;56616.03;5046616;28;20309;-79
2024/01/15 06:15:32;;;;;;;141.63;56.88;;;;;;;-142.91;100.00;56616.03;5055295;28;20222;-78
2024/01/15 06:17:58;;;;;;;109.40;50.78;;;;;;;-142.91;100.00;56616.03;5046797;28;20306;-72
2024/01/15 06:20:25;;;;;;;114.80;50.45;;;;;;;-142.91;100.00;56616.03;5047246;28;20302;-81
2024/01/15 06:22:51;;;;;;;124.60;49.95;;;;;;;-142.91;100.00;56616.03;5050790;28;20282;-78
2024/01/15 06:25:19;;;;;;;117.70;50.67;;;;;;;-142.91;100.00;56616.03;5050989;28;20317;-79
2024/01/15 06:27:46;;;;;;;106.15;47.60;;;;;;;-142.91;100.00;56616.03;5049581;28;20294;-78
2024/01/15 06:30:13;;;;;;;106.93;48.42;;;;;;;-142.91;100.00;56616.03;5052656;28;20652;-76
2024/01/15 06:32:40;;;;;;;126.95;49.50;;;;;;;-142.91;100.00;56616.03;5052558;28;20747;-80
2024/01/15 06:35:07;;;;;;;115.65;47.85;;;;;;;-142.91;100.00;56616.03;5062141;28;20222;-77
2024/01/15 06:37:34;;;;;;;119.70;48.35;;;;;;;-142.91;100.00;56616.03;5051047;28;20242;-80
2024/01/15 06:40:00;;;;;;;113.00;46.05;;;;;;;-142.91;100.00;56616.03;5053126;28;20744;-74
2024/01/15 06:42:28;;;;;;;99.03;45.92;;;;;;;-142.91;100.00;56616.03;5051758;28;20286;-79
2024/01/15 06:44:55;;;;;;;103.78;47.95;;;;;;;-142.91;100.00;56616.03;5052644;28;20231;-80
2024/01/15 06:47:22;;;;;;;107.95;46.00;;;;;;;-142.91;100.00;56616.03;5049203;28;20676;-79
2024/01/15 06:49:50;;;;;;;103.72;46.00;;;;;;;-142.91;100.00;56616.03;5053424;28;20293;-80
2024/01/15 06:52:17;;;;;;;104.93;48.33;;;;;;;-142.91;100.00;56616.03;5051095;28;20203;-79
2024/01/15 06:54:43;;;;;;;107.90;46.00;;;;;;;-142.91;100.00;56616.03;5055082;28;20222;-77
2024/01/15 06:57:10;;;;;;;100.00;45.60;;;;;;;-142.91;100.00;56616.03;5053058;28;20645;-80
2024/01/15 06:59:38;;;;;;;103.63;46.35;;;;;;;-142.91;100.00;56616.03;5053278;28;20293;-79
2024/01/15 07:02:05;;;;;;;98.88;47.05;;;;;;;23.25;100.00;56616.03;5050210;28;20295;-78
2024/01/15 07:04:31;;;;;;;101.43;44.92;;;;;;;;;;5049472;28;20665;-78
2024/01/15 07:06:58;;;;;;;93.55;43.80;;;;;;;-142.91;100.00;56616.03;5054789;28;20234;-79
2024/01/15 07:09:25;;;;;;;92.43;41.88;;;;;;;-142.91;100.00;56616.03;5052730;28;20757;-78
2024/01/15 07:11:51;;;;;;;98.18;44.40;;;;;;;-142.91;100.00;56616.03;5057130;28;20651;-77
2024/01/15 07:14:18;;;;;;;97.90;43.40;;;;;;;-142.91;100.00;56616.03;5048265;28;20239;-77
2024/01/15 07:16:46;;;;;;;95.32;43.90;;;;;;;-142.91;100.00;56616.03;5051377;28;20325;-77
2024/01/15 07:19:12;;;;;;;94.22;44.55;;;;;;;-142.91;100.00;56616.03;5050409;28;20298;-82
2024/01/15 07:21:40;;;;;;;86.13;43.60;;;;;;;-142.91;100.00;56616.03;5051286;28;20258;-78
2024/01/15 07:24:06;;;;;;;86.50;42.45;;;;;;;-142.91;100.00;56616.03;5052758;28;20298;-79
2024/01/15 07:26:33;;;;;;;85.20;42.45;;;;;;;-142.91;100.00;56616.03;5054639;28;22508;-79
2024/01/15 07:29:00;;;;;;;99.05;44.13;;;;;;;-142.91;100.00;56616.03;5052207;28;20281;-79
2024/01/15 07:31:27;;;;;;;94.95;45.47;;;;;;;-142.91;100.00;56616.03;5052952;28;20285;-82
2024/01/15 07:33:55;;;;;;;96.65;43.63;;;;;;;23.25;100.00;56616.03;5049411;28;20238;-81
2024/01/15 07:36:22;;;;;;;96.45;46.97;;;;;;;-142.91;100.00;56616.03;5050141;28;20783;-81
2024/01/15 07:38:48;;;;;;;95.25;47.50;;;;;;;-142.91;100.00;56616.03;5047320;28;20261;-81
2024/01/15 07:41:15;;;;;;;105.10;46.63;;;;;;;-142.91;100.00;56616.03;5052457;28;20241;-81
2024/01/15 07:43:42;;;;;;;96.55;45.95;;;;;;;-142.91;100.00;56616.03;5059389;28;20631;-79
2024/01/15 07:46:08;;;;;;;97.97;47.90;;;;;;;-142.91;100.00;56616.03;5053917;28;20268;-79
2024/01/15 07:48:35;;;;;;;95.65;44.63;;;;;;;-142.91;100.00;56616.03;5047602;28;20297;-79
2024/01/15 07:51:04;;;;;;;108.35;46.40;;;;;;;-142.91;100.00;56616.03;5048765;28;20298;-80
2024/01/15 07:53:30;;;;;;;94.53;46.58;;;;;;;-142.91;100.00;56616.03;5047596;28;20199;-79
2024/01/15 07:55:57;;;;;;;91.53;43.47;;;;;;;-142.91;100.00;56616.03;5049296;28;20312;-80
2024/01/15 07:58:23;;;;;;;109.85;46.92;;;;;;;-142.91;100.00;56616.03;5048709;28;20294;-79
2024/01/15 08:00:50;;;;;;;87.38;39.35;;;;;;;-142.91;100.00;56616.03;5048682;28;20235;-79
2024/01/15 08:03:17;;;;;;;91.68;43.83;;;;;;;-142.91;100.00;56616.03;5049662;28;20644;-76
2024/01/15 08:05:44;;;;;;;86.22;41.47;;;;;;;-142.91;100.00;56616.03;5050380;28;20275;-77
2024/01/15 08:08:12;;;;;;;92.75;44.35;;;;;;;-142.91;100.00;56616.03;5051373;28;20752;-81
2024/01/15 08:10:38;;;;;;;100.97;41.97;;;;;;;-142.91;100.00;56616.03;5047782;28;20202;-80
2024/01/15 08:13:07;;;;;;;108.40;50.08;;;;;;;-142.91;100.00;56616.03;5051127;28;20276;-79
2024/01/15 08:15:34;;;;;;;114.05;55.67;;;;;;;-142.91;100.00;56616.03;5051878;28;20281;-78
2024/01/15 08:18:01;;;;;;;141.68;65.65;;;;;;;-142.91;100.00;56616.03;5050997;28;20691;-79
2024/01/15 08:20:27;;;;;;;151.23;70.13;;;;;;;-142.91;100.00;56616.03;5048489;28;20234;-79
2024/01/15 08:22:54;;;;;;;139.48;65.22;;;;;;;;;;5048595;28;20291;-79
2024/01/15 08:25:22;;;;;;;153.65;69.68;;;;;;;-142.91;100.00;56616.03;5050015;28;20832;-79
2024/01/15 08:27:48;;;;;;;142.90;67.32;;;;;;;-142.91;100.00;56616.03;5046287;28;20281;-80
2024/01/15 08:30:15;;;;;;;127.10;60.05;;;;;;;-142.91;100.00;56616.03;5051493;28;20233;-77
2024/01/15 08:32:42;;;;;;;137.60;61.38;;;;;;;-142.91;100.00;56616.03;5057803;28;20631;-79
2024/01/15 08:35:09;;;;;;;122.90;56.33;;;;;;;-142.91;100.00;56616.03;5048937;28;20203;-79
2024/01/15 08:37:35;;;;;;;130.43;59.60;;;;;;;;;;5046854;28;20314;-75
2024/01/15 08:40:03;;;;;;;125.05;57.50;;;;;;;-142.91;100.00;56616.03;5047752;28;20286;-78
2024/01/15 08:42:31;;;;;;;115.72;55.47;;;;;;;-142.91;100.00;56616.03;5046953;28;20569;-78
2024/01/15 08:44:58;;;;;;;114.65;52.78;;;;;;;-142.91;100.00;56616.03;5047106;28;20286;-80
2024/01/15 08:47:25;;;;;;;126.60;56.95;;;;;;;-142.91;100.00;56616.03;5047440;28;20207;-78
2024/01/15 08:49:52;;;;;;;129.15;61.85;;;;;;;-142.91;100.00;56616.03;5046793;28;20222;-78
2024/01/15 08:52:20;;;;;;;144.80;68.30;;;;;;;-142.91;100.00;56616.03;5050023;28;20223;-78
2024/01/15 08:54:46;;;;;;;141.18;63.20;;;;;;;-142.91;100.00;56616.03;5047292;28;20273;-77
2024/01/15 08:57:13;;;;;;;146.10;66.10;;;;;;;-142.91;100.00;56616.03;5045864;28;20679;-77
2024/01/15 08:59:42;;;;;;;140.57;66.90;;;;;;;-142.91;100.00;56616.03;5045942;28;20696;-78
2024/01/15 09:02:08;;;;;;;139.65;64.85;;;;;;;-142.91;100.00;56616.03;5048215;28;20199;-78
2024/01/15 09:04:35;;;;;;;132.18;61.05;;;;;;;-142.91;100.00;56616.03;5054591;28;20688;-76
2024/01/15 09:07:02;;;;;;;136.05;62.13;;;;;;;-142.91;100.00;56616.03;5051584;28;20286;-79
2024/01/15 09:09:28;;;;;;;123.68;57.78;;;;;;;-142.91;100.00;56616.03;5054529;28;20202;-79
2024/01/15 09:11:55;;;;;;;123.05;54.80;;;;;;;-142.91;100.00;56616.03;5043733;28;20668;-75
2024/01/15 09:14:22;;;;;;;106.40;52.30;;;;;;;-142.91;100.00;56616.03;5047495;28;20230;-78
2024/01/15 09:16:50;;;;;;;108.35;51.00;;;;;;;-142.91;100.00;56616.03;5047650;28;20249;-77
2024/01/15 09:19:16;;;;;;;102.68;48.45;;;;;;;-142.91;100.00;56616.03;5050482;28;20751;-77
2024/01/15 09:21:43;;;;;;;99.18;47.72;;;;;;;-142.91;100.00;56616.03;5048418;28;20261;-75
2024/01/15 09:24:10;;;;;;;102.22;48.97;;;;;;;-142.91;100.00;56616.03;5047162;28;20659;-74
2024/01/15 09:26:36;;;;;;;108.45;48.75;;;;;;;-142.91;100.00;56616.03;5044109;28;20310;-76
2024/01/15 09:29:03;;;;;;;102.93;48.00;;;;;;;-142.91;100.00;56616.03;5047101;28;20657;-76
2024/01/15 09:31:31;;;;;;;124.40;55.38;;;;;;;-142.91;100.00;56616.03;5048234;28;20195;-74
2024/01/15 09:34:00;;;;;;;135.55;60.03;;;;;;;-142.91;100.00;56616.03;5051108;28;20203;-78
2024/01/15 09:36:26;;;;;;;152.73;70.22;;;;;;;-142.91;100.00;56616.03;5050292;28;20258;-77
2024/01/15 09:38:53;;;;;;;167.85;72.72;;;;;;;;;;5048950;28;20199;-77
2024/01/15 09:41:20;;;;;;;156.77;73.38;;;;;;;-142.91;100.00;56616.03;5046172;28;20294;-79
2024/01/15 09:43:47;;;;;;;142.43;72.35;;;;;;;23.25;100.00;56616.03;5052361;28;20294;-78
2024/01/15 09:46:13;;;;;;;144.73;71.18;;;;;;;23.25;100.00;56616.03;5042981;28;20232;-77
2024/01/15 09:48:40;;;;;;;151.70;70.25;;;;;;;-142.91;100.00;56616.03;5047546;28;20213;-75
2024/01/15 09:51:09;;;;;;;150.55;71.20;;;;;;;23.29;100.00;56616.03;5048748;28;20285;-74
2024/01/15 09:53:38;;;;;;;145.88;70.10;;;;;;;-142.91;100.00;56616.03;5048073;28;20720;-75
2024/01/15 09:56:06;;;;;;;127.75;60.65;;;;;;;-142.91;100.00;56616.03;5049796;28;20207;-75
2024/01/15 09:58:34;;;;;;;112.93;53.88;;;;;;;-142.91;100.00;56616.03;5050397;28;20213;-75
2024/01/15 10:01:02;;;;;;;116.93;51.08;;;;;;;-142.91;100.00;56616.03;5053755;28;20241;-75
2024/01/15 10:03:29;;;;;;;112.72;55.55;;;;;;;-142.91;100.00;56616.03;5053837;28;20223;-76
2024/01/15 10:05:59;;;;;;;115.93;54.58;;;;;;;-142.91;100.00;56616.03;5054450;28;20237;-76
2024/01/15 10:08:27;;;;;;;113.38;51.65;;;;;;;-142.91;100.00;56616.03;5053639;28;20278;-75
2024/01/15 10:10:53;;;;;;;97.18;47.00;;;;;;;-142.91;100.00;56616.03;5053721;28;20667;-75
2024/01/15 10:13:21;;;;;;;94.70;46.30;;;;;;;-142.91;100.00;56616.03;5054073;28;20291;-74
2024/01/15 10:15:48;;;;;;;89.93;42.60;;;;;;;-142.91;100.00;56616.03;5053646;28;20234;-75
2024/01/15 10:18:15;;;;;;;76.95;39.75;;;;;;;-142.91;100.00;56616.03;5053581;28;20311;-74
2024/01/15 10:20:42;;;;;;;82.32;38.00;;;;;;;23.25;100.00;56616.03;5053613;28;20352;-75
2024/01/15 10:23:09;;;;;;;80.38;38.08;;;;;;;-142.91;100.00;56616.03;5041325;28;20800;-76
2024/01/15 10:25:37;;;;;;;77.82;38.55;;;;;;;-142.91;100.00;56616.03;5053234;28;20266;-75
2024/01/15 10:28:05;;;;;;;71.88;35.10;;;;;;;23.25;100.00;56616.03;5041980;28;20223;-76
2024/01/15 10:30:33;;;;;;;63.78;31.20;;;;;;;-142.91;100.00;56616.03;5053981;28;20264;-75
2024/01/15 10:33:01;;;;;;;59.72;30.83;;;;;;;-142.91;100.00;56616.03;5053744;28;20680;-75
2024/01/15 10:35:29;;;;;;;62.05;28.73;;;;;;;-142.91;100.00;56616.03;5053570;28;20207;-76
2024/01/15 10:37:55;;;;;;;53.65;27.25;;;;;;;23.26;100.00;56616.03;5053740;28;20233;-75
2024/01/15 10:40:22;;;;;;;58.70;27.77;;;;;;;-142.91;100.00;56616.03;5053040;28;20253;-75
2024/01/15 10:42:50;;;;;;;63.30;28.02;;;;;;;23.26;100.00;56616.03;5053484;28;20203;-75
2024/01/15 10:45:17;;;;;;;65.88;28.50;;;;;;;23.25;100.00;56616.03;5052962;28;20655;-75
2024/01/15 10:47:44;;;;;;;59.33;28.85;;;;;;;23.25;100.00;56616.03;5053505;28;20299;-75
2024/01/15 10:50:10;;;;;;;68.43;30.90;;;;;;;23.26;100.00;56616.03;5053255;28;20292;-75
2024/01/15 10:52:40;;;;;;;48.67;27.70;;;;;;;23.26;100.00;56616.03;5053067;28;20239;-74
2024/01/15 10:55:08;;;;;;;56.70;27.70;;;;;;;23.26;100.00;56616.03;5053143;28;20257;-76
2024/01/15 10:57:35;;;;;;;53.88;24.75;;;;;;;23.25;100.00;56616.03;5053273;28;20229;-74